createdAt,value
2023-11-29T00:00:08.863Z,29.00
2023-11-29T00:02:36.929Z,29.00
2023-11-29T00:05:05.716Z,29.10
2023-11-29T00:07:32.711Z,29.10
2023-11-29T00:09:59.594Z,29.10
2023-11-29T00:12:26.539Z,29.10
2023-11-29T00:14:53.486Z,29.10
2023-11-29T00:17:20.539Z,29.10
2023-11-29T00:19:47.481Z,29.10
2023-11-29T00:22:14.854Z,29.10
2023-11-29T00:24:47.886Z,29.10
2023-11-29T00:27:15.361Z,29.20
2023-11-29T00:29:42.333Z,29.20
2023-11-29T00:32:09.327Z,29.20
2023-11-29T00:34:36.225Z,29.10
2023-11-29T00:37:05.496Z,29.10
2023-11-29T00:39:32.739Z,29.20
2023-11-29T00:42:00.889Z,29.20
2023-11-29T00:44:27.875Z,29.10
2023-11-29T00:46:54.844Z,29.10
2023-11-29T00:49:21.798Z,29.10
2023-11-29T00:51:49.449Z,29.00
2023-11-29T00:54:16.425Z,29.10
2023-11-29T00:56:43.456Z,29.00
2023-11-29T00:59:10.467Z,29.00
2023-11-29T01:01:37.544Z,28.90
2023-11-29T01:04:04.578Z,28.80
2023-11-29T01:06:34.676Z,28.70
2023-11-29T01:09:04.473Z,28.60
2023-11-29T01:11:31.548Z,28.70
2023-11-29T01:13:58.564Z,28.60
2023-11-29T01:16:25.492Z,28.60
2023-11-29T01:18:52.632Z,28.60
2023-11-29T01:21:25.380Z,28.60
2023-11-29T01:23:56.217Z,28.60
2023-11-29T01:26:23.141Z,28.50
2023-11-29T01:28:50.099Z,28.40
2023-11-29T01:31:19.592Z,28.50
2023-11-29T01:33:46.513Z,28.40
2023-11-29T01:36:13.525Z,28.40
2023-11-29T01:38:40.455Z,28.40
2023-11-29T01:41:07.405Z,28.40
2023-11-29T01:43:34.507Z,28.40
2023-11-29T01:46:01.492Z,28.30
2023-11-29T01:48:28.897Z,28.30
2023-11-29T01:50:56.328Z,28.30
2023-11-29T01:53:24.176Z,28.30
2023-11-29T01:55:53.840Z,28.30
2023-11-29T01:58:21.501Z,28.30
2023-11-29T02:00:48.600Z,28.30
2023-11-29T02:03:16.465Z,28.30
2023-11-29T02:05:43.882Z,28.30
2023-11-29T02:08:11.374Z,28.40
2023-11-29T02:10:39.021Z,28.40
2023-11-29T02:13:06.307Z,28.40
2023-11-29T02:15:33.196Z,28.40
2023-11-29T02:18:00.463Z,28.30
2023-11-29T02:20:27.933Z,28.30
2023-11-29T02:23:16.168Z,28.30
2023-11-29T02:25:43.073Z,28.20
2023-11-29T02:28:10.030Z,28.20
2023-11-29T02:30:36.930Z,28.20
2023-11-29T02:33:03.988Z,28.20
2023-11-29T02:35:31.106Z,28.20
2023-11-29T02:37:58.076Z,28.20
2023-11-29T02:40:25.540Z,28.10
2023-11-29T02:42:52.507Z,28.10
2023-11-29T02:45:19.411Z,28.10
2023-11-29T02:47:46.433Z,28.10
2023-11-29T02:50:13.579Z,28.00
2023-11-29T02:52:40.527Z,28.00
2023-11-29T02:55:08.282Z,27.90
2023-11-29T02:57:35.413Z,27.90
2023-11-29T03:00:02.364Z,28.00
2023-11-29T03:02:30.039Z,27.90
2023-11-29T03:04:56.973Z,27.80
2023-11-29T03:07:23.926Z,27.80
2023-11-29T03:09:50.802Z,27.80
2023-11-29T03:12:17.846Z,27.70
2023-11-29T03:14:44.779Z,27.70
2023-11-29T03:17:11.886Z,27.60
2023-11-29T03:19:38.755Z,27.60
2023-11-29T03:22:05.639Z,27.50
2023-11-29T03:24:32.537Z,27.50
2023-11-29T03:26:59.624Z,27.30
2023-11-29T03:29:26.603Z,27.20
2023-11-29T03:31:53.537Z,27.10
2023-11-29T03:34:21.157Z,27.10
2023-11-29T03:36:48.172Z,27.10
2023-11-29T03:39:15.381Z,27.10
2023-11-29T03:41:42.329Z,27.10
2023-11-29T03:44:09.255Z,27.10
2023-11-29T03:46:36.204Z,27.10
2023-11-29T03:49:04.596Z,27.10
2023-11-29T03:51:38.088Z,27.20
2023-11-29T03:54:08.918Z,27.20
2023-11-29T03:56:35.858Z,27.20
2023-11-29T03:59:02.739Z,27.10
2023-11-29T04:01:33.548Z,27.10
2023-11-29T04:04:00.601Z,27.10
2023-11-29T04:06:28.075Z,27.00
2023-11-29T04:08:55.416Z,27.00
2023-11-29T04:11:22.873Z,26.90
2023-11-29T04:13:49.852Z,26.90
2023-11-29T04:16:23.871Z,26.90
2023-11-29T04:18:51.361Z,26.90
2023-11-29T04:21:28.136Z,26.90
2023-11-29T04:23:55.929Z,26.90
2023-11-29T04:26:30.590Z,27.00
2023-11-29T04:28:58.008Z,27.10
2023-11-29T04:31:25.603Z,27.10
2023-11-29T04:33:52.609Z,27.20
2023-11-29T04:36:19.895Z,27.20
2023-11-29T04:38:46.919Z,27.30
2023-11-29T04:41:13.900Z,27.30
2023-11-29T04:43:41.168Z,27.40
2023-11-29T04:46:08.202Z,27.30
2023-11-29T04:48:35.352Z,27.30
2023-11-29T04:51:02.644Z,27.30
2023-11-29T04:53:29.765Z,27.20
2023-11-29T04:55:57.095Z,27.30
2023-11-29T04:58:27.121Z,27.20
2023-11-29T05:00:54.444Z,27.20
2023-11-29T05:03:21.862Z,27.10
2023-11-29T05:05:49.310Z,27.10
2023-11-29T05:08:16.379Z,27.10
2023-11-29T05:10:43.432Z,27.00
2023-11-29T05:13:10.381Z,27.10
2023-11-29T05:15:37.474Z,27.10
2023-11-29T05:18:04.894Z,27.30
2023-11-29T05:20:32.367Z,27.10
2023-11-29T05:22:59.303Z,27.10
2023-11-29T05:25:26.251Z,27.20
2023-11-29T05:27:53.254Z,27.10
2023-11-29T05:30:20.189Z,27.20
2023-11-29T05:32:47.849Z,27.10
2023-11-29T05:35:14.981Z,27.10
2023-11-29T05:37:42.320Z,27.10
2023-11-29T05:40:10.567Z,27.00
2023-11-29T05:42:39.693Z,27.00
2023-11-29T05:45:07.873Z,27.00
2023-11-29T05:47:35.255Z,27.00
2023-11-29T05:50:02.724Z,27.00
2023-11-29T05:52:30.189Z,27.00
2023-11-29T05:54:57.616Z,27.00
2023-11-29T05:57:24.606Z,27.10
2023-11-29T05:59:51.675Z,27.00
2023-11-29T06:02:18.595Z,27.10
2023-11-29T06:04:45.548Z,27.10
2023-11-29T06:07:12.668Z,27.10
2023-11-29T06:09:40.416Z,27.10
2023-11-29T06:12:08.480Z,27.10
2023-11-29T06:14:35.609Z,27.10
2023-11-29T06:17:03.144Z,27.10
2023-11-29T06:19:34.397Z,27.00
2023-11-29T06:22:01.413Z,27.60
2023-11-29T06:24:32.834Z,27.00
2023-11-29T06:27:01.422Z,26.80
2023-11-29T06:29:28.581Z,26.70
2023-11-29T06:31:55.647Z,26.60
2023-11-29T06:34:22.669Z,26.70
2023-11-29T06:36:50.212Z,26.70
2023-11-29T06:39:19.112Z,26.70
2023-11-29T06:41:48.192Z,26.80
2023-11-29T06:44:15.229Z,26.80
2023-11-29T06:46:42.405Z,26.80
2023-11-29T06:49:10.868Z,26.80
2023-11-29T06:51:39.746Z,26.90
2023-11-29T06:54:07.031Z,26.90
2023-11-29T06:56:34.553Z,26.90
2023-11-29T06:59:05.364Z,27.00
2023-11-29T07:01:33.343Z,26.90
2023-11-29T07:04:00.311Z,27.00
2023-11-29T07:06:27.476Z,27.00
2023-11-29T07:08:54.501Z,26.90
2023-11-29T07:11:21.536Z,26.90
2023-11-29T07:13:48.548Z,26.90
2023-11-29T07:16:15.500Z,26.90
2023-11-29T07:18:42.554Z,26.90
2023-11-29T07:21:09.514Z,26.90
2023-11-29T07:23:36.610Z,26.80
2023-11-29T07:26:03.537Z,26.80
2023-11-29T07:28:30.569Z,26.80
2023-11-29T07:30:57.567Z,26.80
2023-11-29T07:36:11.355Z,26.80
2023-11-29T07:38:38.527Z,26.90
2023-11-29T07:41:05.420Z,26.90
2023-11-29T07:43:32.936Z,27.00
2023-11-29T07:45:59.905Z,27.00
2023-11-29T07:48:27.001Z,27.00
2023-11-29T07:50:54.137Z,27.00
2023-11-29T07:53:21.101Z,27.00
2023-11-29T07:55:48.039Z,27.10
2023-11-29T07:58:21.020Z,27.40
2023-11-29T08:00:51.632Z,27.10
2023-11-29T08:03:18.535Z,27.10
2023-11-29T08:05:46.636Z,27.10
2023-11-29T08:08:14.813Z,27.70
2023-11-29T08:10:48.009Z,27.10
2023-11-29T08:13:15.081Z,27.10
2023-11-29T08:15:42.373Z,27.20
2023-11-29T08:18:10.713Z,27.20
2023-11-29T08:20:38.289Z,27.30
2023-11-29T08:23:05.411Z,27.30
2023-11-29T08:25:32.453Z,27.40
2023-11-29T08:28:01.312Z,27.40
2023-11-29T08:30:29.284Z,27.50
2023-11-29T08:32:58.215Z,27.50
2023-11-29T08:35:25.395Z,27.50
2023-11-29T08:37:52.561Z,27.50
2023-11-29T08:40:20.189Z,27.60
2023-11-29T08:42:47.471Z,27.60
2023-11-29T08:45:14.505Z,27.60
2023-11-29T08:47:41.583Z,27.60
2023-11-29T08:50:09.029Z,27.50
2023-11-29T08:52:36.122Z,27.60
2023-11-29T08:55:03.679Z,27.50
2023-11-29T08:57:31.990Z,27.60
2023-11-29T08:59:59.403Z,27.60
2023-11-29T09:02:28.697Z,27.60
2023-11-29T09:04:55.832Z,27.60
2023-11-29T09:07:23.072Z,27.60
2023-11-29T09:09:50.159Z,27.70
2023-11-29T09:12:17.088Z,27.80
2023-11-29T09:14:44.876Z,27.80
2023-11-29T09:17:11.965Z,27.90
2023-11-29T09:19:39.270Z,27.80
2023-11-29T09:22:06.297Z,27.80
2023-11-29T09:24:44.747Z,27.80
2023-11-29T09:27:36.381Z,27.80
2023-11-29T09:30:03.722Z,27.70
2023-11-29T09:32:33.697Z,27.60
2023-11-29T09:35:01.114Z,28.20
2023-11-29T09:37:28.540Z,27.60
2023-11-29T09:39:55.566Z,27.60
2023-11-29T09:42:23.470Z,27.60
2023-11-29T09:44:50.598Z,27.60
2023-11-29T09:47:18.314Z,27.60
2023-11-29T09:49:45.484Z,28.20
2023-11-29T09:52:13.386Z,27.70
2023-11-29T09:54:40.569Z,27.70
2023-11-29T09:57:07.717Z,27.80
2023-11-29T09:59:34.764Z,27.90
2023-11-29T10:02:06.415Z,27.90
2023-11-29T10:04:37.507Z,27.90
2023-11-29T10:07:04.756Z,28.00
2023-11-29T10:09:36.036Z,28.00
2023-11-29T10:12:03.356Z,28.00
2023-11-29T10:14:30.692Z,28.00
2023-11-29T10:16:58.125Z,28.00
2023-11-29T10:19:25.108Z,28.00
2023-11-29T10:21:54.369Z,27.90
2023-11-29T10:24:25.171Z,28.00
2023-11-29T10:26:52.398Z,27.90
2023-11-29T10:29:19.682Z,27.90
2023-11-29T10:31:51.680Z,27.90
2023-11-29T10:34:20.129Z,27.90
2023-11-29T10:36:47.881Z,27.90
2023-11-29T10:39:17.390Z,27.90
2023-11-29T10:41:48.391Z,27.90
2023-11-29T10:44:16.181Z,27.90
2023-11-29T10:46:44.563Z,27.90
2023-11-29T10:49:16.742Z,27.90
2023-11-29T10:51:44.536Z,27.90
2023-11-29T10:54:12.225Z,28.40
2023-11-29T10:56:59.728Z,27.80
2023-11-29T10:59:29.014Z,27.80
2023-11-29T11:01:59.895Z,27.80
2023-11-29T11:04:33.901Z,27.70
2023-11-29T11:07:04.080Z,27.70
2023-11-29T11:09:37.549Z,27.70
2023-11-29T11:12:06.909Z,27.70
2023-11-29T11:14:43.008Z,27.60
2023-11-29T11:17:15.130Z,27.70
2023-11-29T11:19:43.049Z,27.60
2023-11-29T11:22:22.973Z,27.50
2023-11-29T11:25:01.710Z,27.50
2023-11-29T11:27:37.292Z,27.60
2023-11-29T11:30:20.390Z,27.60
2023-11-29T11:32:49.686Z,27.60
2023-11-29T11:35:20.321Z,27.60
2023-11-29T11:37:47.419Z,27.60
2023-11-29T11:40:15.368Z,27.70
2023-11-29T11:42:43.059Z,27.70
2023-11-29T11:45:17.255Z,27.70
2023-11-29T11:47:44.684Z,27.70
2023-11-29T11:50:15.012Z,27.70
2023-11-29T11:52:42.204Z,27.70
2023-11-29T11:55:10.059Z,27.80
2023-11-29T11:57:37.641Z,27.80
2023-11-29T12:00:08.853Z,27.80
2023-11-29T12:02:36.334Z,27.80
2023-11-29T12:05:07.484Z,27.80
2023-11-29T12:07:43.346Z,27.80
2023-11-29T12:10:19.503Z,27.70
2023-11-29T12:12:48.791Z,27.70
2023-11-29T12:18:54.105Z,27.70
2023-11-29T12:21:21.160Z,27.70
2023-11-29T12:23:48.190Z,27.70
2023-11-29T12:26:18.476Z,27.70
2023-11-29T12:28:45.549Z,27.70
2023-11-29T12:31:15.718Z,27.70
2023-11-29T12:33:42.767Z,27.60
2023-11-29T12:36:11.255Z,27.60
2023-11-29T12:38:38.808Z,28.10
2023-11-29T12:41:12.119Z,27.60
2023-11-29T12:43:59.949Z,27.70
2023-11-29T12:46:27.086Z,27.60
2023-11-29T12:48:59.710Z,27.70
2023-11-29T12:51:30.175Z,27.70
2023-11-29T12:54:05.787Z,27.70
2023-11-29T12:56:45.927Z,27.70
2023-11-29T12:59:19.272Z,27.70
2023-11-29T13:01:46.746Z,27.70
2023-11-29T13:04:13.849Z,27.70
2023-11-29T13:06:41.138Z,27.70
2023-11-29T13:09:11.227Z,27.90
2023-11-29T13:11:38.205Z,27.90
2023-11-29T13:14:05.422Z,27.90
2023-11-29T13:16:32.344Z,28.00
2023-11-29T13:18:59.345Z,28.10
2023-11-29T13:21:27.434Z,28.20
2023-11-29T13:23:56.708Z,28.20
2023-11-29T13:26:23.674Z,28.30
2023-11-29T13:28:53.595Z,28.40
2023-11-29T13:31:20.851Z,28.50
2023-11-29T13:33:48.540Z,28.50
2023-11-29T13:36:15.697Z,28.50
2023-11-29T13:38:42.688Z,28.40
2023-11-29T13:41:09.779Z,28.40
2023-11-29T13:43:40.333Z,28.40
2023-11-29T13:46:07.408Z,28.40
2023-11-29T13:48:37.715Z,28.40
2023-11-29T13:51:04.953Z,28.30
2023-11-29T13:53:32.377Z,28.30
2023-11-29T13:56:17.549Z,28.30
2023-11-29T13:58:56.810Z,28.20
2023-11-29T14:01:24.453Z,28.20
2023-11-29T14:03:54.301Z,28.20
2023-11-29T14:06:31.632Z,28.30
2023-11-29T14:09:01.999Z,28.20
2023-11-29T14:11:42.853Z,28.30
2023-11-29T14:14:10.158Z,28.30
2023-11-29T14:16:41.555Z,28.20
2023-11-29T14:19:08.654Z,28.20
2023-11-29T14:21:40.716Z,28.20
2023-11-29T14:24:07.935Z,28.20
2023-11-29T14:26:41.105Z,28.20
2023-11-29T14:29:11.856Z,28.30
2023-11-29T14:31:39.429Z,28.30
2023-11-29T14:34:09.918Z,28.30
2023-11-29T14:36:45.341Z,28.40
2023-11-29T14:39:38.978Z,28.40
2023-11-29T14:42:06.008Z,28.50
2023-11-29T14:44:35.410Z,28.50
2023-11-29T14:47:04.191Z,28.50
2023-11-29T14:49:32.965Z,28.60
2023-11-29T14:52:02.515Z,28.60
2023-11-29T14:54:44.242Z,28.50
2023-11-29T14:57:11.453Z,28.50
2023-11-29T14:59:48.587Z,28.50
2023-11-29T15:02:25.225Z,28.40
2023-11-29T15:04:52.491Z,28.40
2023-11-29T15:07:19.409Z,28.40
2023-11-29T15:09:49.424Z,28.30
2023-11-29T15:12:16.815Z,28.30
2023-11-29T15:14:44.527Z,28.30
2023-11-29T15:17:11.571Z,28.30
2023-11-29T15:19:43.270Z,28.30
2023-11-29T15:22:13.404Z,28.20
2023-11-29T15:24:42.206Z,28.30
2023-11-29T15:27:11.665Z,28.30
2023-11-29T15:29:42.442Z,28.30
2023-11-29T15:32:11.308Z,28.30
2023-11-29T15:34:38.563Z,28.20
2023-11-29T15:37:05.715Z,28.10
2023-11-29T15:39:32.827Z,28.10
2023-11-29T15:42:05.528Z,28.00
2023-11-29T15:44:32.453Z,28.00
2023-11-29T15:46:59.487Z,28.10
2023-11-29T15:49:26.369Z,28.10
2023-11-29T15:51:53.431Z,28.20
2023-11-29T15:54:20.483Z,28.30
2023-11-29T15:56:47.596Z,28.40
2023-11-29T15:59:14.539Z,28.50
2023-11-29T16:01:41.704Z,28.50
2023-11-29T16:04:08.990Z,28.50
2023-11-29T16:06:36.334Z,28.60
2023-11-29T16:09:03.363Z,28.60
2023-11-29T16:11:30.492Z,28.60
2023-11-29T16:13:57.504Z,28.60
2023-11-29T16:16:25.334Z,28.50
2023-11-29T16:18:52.518Z,28.50
2023-11-29T16:21:26.338Z,28.40
2023-11-29T16:23:53.368Z,28.40
2023-11-29T16:26:20.366Z,28.30
2023-11-29T16:28:47.493Z,28.30
2023-11-29T16:31:17.676Z,28.20
2023-11-29T16:33:44.890Z,28.10
2023-11-29T16:36:13.102Z,28.10
2023-11-29T16:38:41.571Z,28.10
2023-11-29T16:41:11.360Z,28.10
2023-11-29T16:43:39.371Z,28.10
2023-11-29T16:46:12.809Z,28.10
2023-11-29T16:48:40.160Z,28.10
2023-11-29T16:51:09.829Z,28.10
2023-11-29T16:53:40.478Z,28.00
2023-11-29T16:56:07.873Z,28.00
2023-11-29T16:58:36.034Z,28.00
2023-11-29T17:01:03.411Z,28.10
2023-11-29T17:03:30.795Z,28.10
2023-11-29T17:05:58.029Z,28.20
2023-11-29T17:08:25.229Z,28.20
2023-11-29T17:10:52.755Z,28.20
2023-11-29T17:13:19.770Z,28.30
2023-11-29T17:16:19.614Z,28.40
2023-11-29T17:18:46.657Z,28.50
2023-11-29T17:21:13.859Z,28.40
2023-11-29T17:23:40.869Z,28.50
2023-11-29T17:26:08.543Z,28.60
2023-11-29T17:28:35.481Z,28.50
2023-11-29T17:31:02.510Z,28.50
2023-11-29T17:33:30.113Z,28.50
2023-11-29T17:35:57.287Z,28.60
2023-11-29T17:38:24.254Z,28.60
2023-11-29T17:40:51.702Z,28.50
2023-11-29T17:43:18.597Z,28.60
2023-11-29T17:45:45.682Z,28.50
2023-11-29T17:48:14.091Z,28.40
2023-11-29T17:50:41.309Z,28.40
2023-11-29T17:53:08.457Z,28.40
2023-11-29T17:55:38.641Z,28.40
2023-11-29T17:58:05.791Z,28.40
2023-11-29T18:00:35.401Z,28.30
2023-11-29T18:03:02.427Z,28.30
2023-11-29T18:05:29.679Z,28.30
2023-11-29T18:07:56.654Z,28.30
2023-11-29T18:10:23.971Z,28.20
2023-11-29T18:12:51.024Z,28.30
2023-11-29T18:15:18.070Z,28.30
2023-11-29T18:17:45.525Z,28.30
2023-11-29T18:20:12.467Z,28.30
2023-11-29T18:22:40.435Z,28.40
2023-11-29T18:25:08.500Z,28.30
2023-11-29T18:27:35.445Z,28.40
2023-11-29T18:30:06.857Z,28.40
2023-11-29T18:32:36.843Z,28.40
2023-11-29T18:35:04.396Z,28.50
2023-11-29T18:37:31.537Z,28.50
2023-11-29T18:39:58.940Z,28.60
2023-11-29T18:42:26.095Z,28.60
2023-11-29T18:44:53.200Z,28.60
2023-11-29T18:47:20.344Z,28.60
2023-11-29T18:49:47.485Z,28.50
2023-11-29T18:52:14.375Z,28.50
2023-11-29T18:54:41.342Z,28.40
2023-11-29T18:57:08.467Z,28.40
2023-11-29T18:59:40.151Z,28.30
2023-11-29T19:02:08.534Z,28.30
2023-11-29T19:04:36.132Z,28.20
2023-11-29T19:07:03.308Z,28.20
2023-11-29T19:09:30.328Z,28.10
2023-11-29T19:11:57.295Z,28.10
2023-11-29T19:14:24.579Z,28.00
2023-11-29T19:16:51.524Z,28.10
2023-11-29T19:19:18.470Z,28.00
2023-11-29T19:21:45.452Z,28.00
2023-11-29T19:24:17.858Z,27.90
2023-11-29T19:26:44.899Z,28.50
2023-11-29T19:29:14.148Z,27.90
2023-11-29T19:31:48.197Z,27.90
2023-11-29T19:34:15.391Z,27.90
2023-11-29T19:36:42.301Z,27.90
2023-11-29T19:39:09.956Z,27.90
2023-11-29T19:41:36.945Z,27.90
2023-11-29T19:44:04.586Z,27.90
2023-11-29T19:46:31.639Z,28.00
2023-11-29T19:48:58.719Z,28.00
2023-11-29T19:51:26.198Z,28.10
2023-11-29T19:53:53.273Z,28.10
2023-11-29T19:56:21.801Z,28.10
2023-11-29T19:58:48.985Z,28.10
2023-11-29T20:01:15.985Z,28.10
2023-11-29T20:03:42.960Z,28.10
2023-11-29T20:06:10.017Z,28.10
2023-11-29T20:08:37.073Z,28.10
2023-11-29T20:11:05.478Z,28.10
2023-11-29T20:13:32.605Z,28.10
2023-11-29T20:16:02.020Z,28.10
2023-11-29T20:18:30.088Z,28.10
2023-11-29T20:21:01.891Z,28.10
2023-11-29T20:23:31.893Z,28.10
2023-11-29T20:25:59.230Z,28.10
2023-11-29T20:28:26.986Z,28.10
2023-11-29T20:30:55.056Z,28.20
2023-11-29T20:33:22.453Z,28.20
2023-11-29T20:35:50.916Z,28.30
2023-11-29T20:38:19.158Z,28.30
2023-11-29T20:40:48.096Z,28.30
2023-11-29T20:43:15.797Z,28.30
2023-11-29T20:45:42.790Z,28.30
2023-11-29T20:48:09.980Z,28.30
2023-11-29T20:50:38.717Z,28.30
2023-11-29T20:53:14.281Z,28.30
2023-11-29T20:55:47.415Z,28.30
2023-11-29T20:58:15.219Z,28.30
2023-11-29T21:00:44.475Z,28.40
2023-11-29T21:03:11.869Z,28.40
2023-11-29T21:05:38.916Z,28.40
2023-11-29T21:08:06.620Z,28.50
2023-11-29T21:10:33.532Z,28.50
2023-11-29T21:13:01.032Z,28.60
2023-11-29T21:15:28.345Z,28.60
2023-11-29T21:17:55.572Z,28.70
2023-11-29T21:20:22.664Z,28.70
2023-11-29T21:22:49.721Z,28.70
2023-11-29T21:25:17.279Z,28.80
2023-11-29T21:27:44.412Z,28.80
2023-11-29T21:30:11.601Z,28.90
2023-11-29T21:32:38.617Z,28.80
2023-11-29T21:35:05.856Z,28.80
2023-11-29T21:37:32.923Z,28.90
2023-11-29T21:39:59.836Z,28.90
2023-11-29T21:42:26.751Z,28.80
2023-11-29T21:44:53.725Z,28.80
2023-11-29T21:47:20.984Z,28.80
2023-11-29T21:49:48.291Z,28.80
2023-11-29T21:52:15.972Z,28.70
2023-11-29T21:54:43.176Z,28.70
2023-11-29T21:57:10.707Z,28.70
2023-11-29T21:59:38.255Z,28.60
2023-11-29T22:02:05.333Z,28.60
2023-11-29T22:04:32.440Z,28.60
2023-11-29T22:06:59.356Z,28.60
2023-11-29T22:09:26.316Z,28.70
2023-11-29T22:11:53.403Z,28.70
2023-11-29T22:14:20.369Z,28.70
2023-11-29T22:16:47.263Z,28.70
2023-11-29T22:19:14.488Z,28.70
2023-11-29T22:21:41.637Z,28.70
2023-11-29T22:24:08.741Z,28.70
2023-11-29T22:26:47.471Z,28.70
2023-11-29T22:29:22.180Z,28.70
2023-11-29T22:31:50.396Z,28.70
2023-11-29T22:34:17.366Z,28.70
2023-11-29T22:36:44.320Z,29.30
2023-11-29T22:39:12.835Z,28.70
2023-11-29T22:41:39.886Z,28.70
2023-11-29T22:44:09.399Z,28.80
2023-11-29T22:46:36.573Z,28.80
2023-11-29T22:49:03.688Z,28.90
2023-11-29T22:51:30.773Z,28.90
2023-11-29T22:54:03.661Z,29.00
2023-11-29T22:56:37.284Z,29.00
2023-11-29T22:59:04.784Z,29.00
2023-11-29T23:01:35.089Z,29.00
2023-11-29T23:04:03.084Z,29.00
2023-11-29T23:06:30.795Z,29.10
2023-11-29T23:08:58.089Z,29.10
2023-11-29T23:11:25.367Z,29.10
2023-11-29T23:13:53.066Z,29.10
2023-11-29T23:16:20.446Z,29.10
2023-11-29T23:18:47.894Z,29.10
2023-11-29T23:21:15.032Z,29.60
2023-11-29T23:23:44.221Z,29.10
2023-11-29T23:26:11.402Z,29.00
2023-11-29T23:28:38.369Z,29.00
2023-11-29T23:31:05.606Z,29.00
2023-11-29T23:33:32.721Z,29.00
2023-11-29T23:35:59.741Z,29.00
2023-11-29T23:38:26.678Z,28.90
2023-11-29T23:40:53.559Z,28.90
2023-11-29T23:43:20.493Z,28.90
2023-11-29T23:45:47.465Z,28.80
2023-11-29T23:48:14.449Z,28.80
2023-11-29T23:50:41.352Z,28.80
2023-11-29T23:53:08.247Z,29.10
2023-11-29T23:55:35.143Z,28.80
2023-11-29T23:58:02.082Z,28.80
